Flight Track Log - Related Links

Times and Time Zones

All times are in EDT time to prevent confusion due to time zone crossing. See the N946RM flight status page for this flight to view local times or setup timezone preferences in your user account.

Time Position Orientation Groundspeed Altitude Reporting Facility
EDT Latitude Longitude Course Direction KTS MPH feet Rate Location/Type
Thu 03:23:19 PM 27.9833 -82.5500 214° Southwest 132 152 800  Level Tampa TRACON
Thu 03:24:49 PM 27.9167 -82.6000 214° Southwest 242 278 6,300 3,720 Climbing Tampa TRACON
Thu 03:25:49 PM 27.9000 -82.6667 254° West 241 277 10,100 3,000 Climbing Tampa TRACON
Thu 03:26:43 PM 27.9333 -82.7167 307° West 267 307 12,000 1,275 Climbing Tampa TRACON
Thu 03:29:02 PM 28.1269 -82.7561 350° North 303 349 14,200 1,266 Climbing Jacksonville Center
Thu 03:30:02 PM 28.2144 -82.7653 355° North 303 349 16,200 1,950 Climbing Jacksonville Center
Thu 03:31:02 PM 28.3042 -82.7769 353° North 308 354 18,100 1,950 Climbing Jacksonville Center
Thu 03:32:02 PM 28.3858 -82.8172 337° Northwest 309 356 20,100 1,983 Climbing Jacksonville Center
Thu 03:33:03 PM 28.4714 -82.8500 341° North 314 361 22,100 2,050 Climbing Jacksonville Center
Thu 03:34:02 PM 28.5631 -82.8619 353° North 319 367 24,200 2,067 Climbing Jacksonville Center
Thu 03:35:02 PM 28.6550 -82.8714 355° North 325 374 26,200 1,934 Climbing Jacksonville Center
Thu 03:36:03 PM 28.7447 -82.8831 353° North 325 374 28,100 1,950 Climbing Jacksonville Center
Thu 03:37:02 PM 28.8344 -82.8925 355° North 330 380 30,100 2,017 Climbing Jacksonville Center
Thu 03:38:02 PM 28.9181 -82.9069 351° North 322 371 32,100 1,884 Climbing Jacksonville Center
Thu 03:39:03 PM 28.9783 -82.9542 326° Northwest 282 325 33,900 950 Climbing Jacksonville Center
Thu 03:40:02 PM 29.0453 -83.0089 324° Northwest 280 322 34,000 303 Climbing Jacksonville Center
Thu 03:41:02 PM 29.1203 -83.0686 325° Northwest 305 351 34,500 744 Climbing Jacksonville Center
Thu 03:42:03 PM 29.1953 -83.1281 325° Northwest 320 368 35,500 1,000 Climbing Jacksonville Center
Thu 03:43:02 PM 29.2683 -83.1878 325° Northwest 325 374 36,500 1,008 Climbing Jacksonville Center
Thu 03:44:02 PM 29.3411 -83.2475 324° Northwest 325 374 37,500 1,000 Climbing Jacksonville Center
Thu 03:45:02 PM 29.4119 -83.3050 325° Northwest 319 367 38,500 1,000 Climbing Jacksonville Center
Thu 03:46:02 PM 29.4847 -83.3603 327° Northwest 319 367 39,500 750 Climbing Jacksonville Center
Thu 03:47:02 PM 29.5556 -83.4153 326° Northwest 314 361 40,000 250 Climbing Jacksonville Center
Thu 03:48:02 PM 29.6283 -83.4756 324° Northwest 314 361 40,000  Level Jacksonville Center
Thu 03:49:02 PM 29.7053 -83.5381 325° Northwest 319 367 40,000  Level Jacksonville Center
Thu 03:50:02 PM 29.7803 -83.5986 325° Northwest 319 367 40,000  Level Jacksonville Center
Thu 03:51:02 PM 29.8550 -83.6567 326° Northwest 329 379 40,000  Level Jacksonville Center
Thu 03:52:02 PM 29.9319 -83.7194 325° Northwest 334 384 40,000  Level Jacksonville Center
Thu 03:53:02 PM 30.0067 -83.7800 325° Northwest 334 384 40,000  Level Jacksonville Center
Thu 03:54:02 PM 30.0792 -83.8383 325° Northwest 334 384 40,000  Level Jacksonville Center
Thu 03:55:02 PM 30.1539 -83.8992 325° Northwest 334 384 40,000  Level Jacksonville Center
Thu 03:56:02 PM 30.2225 -83.9575 324° Northwest 327 376 40,000  Level Jacksonville Center
Thu 03:57:02 PM 30.2950 -84.0186 324° Northwest 327 376 40,000  Level Jacksonville Center
Thu 03:58:02 PM 30.3697 -84.0747 327° Northwest 322 371 40,000  Level Jacksonville Center
Thu 03:59:02 PM 30.4381 -84.1333 324° Northwest 316 364 40,000  Level Jacksonville Center
Thu 04:00:03 PM 30.5106 -84.1897 326° Northwest 311 358 40,000  Level Jacksonville Center
Thu 04:01:02 PM 30.5725 -84.2414 324° Northwest 311 358 40,000  Level Jacksonville Center
Thu 04:02:02 PM 30.6428 -84.3003 324° Northwest 306 352 40,000  Level Jacksonville Center
Thu 04:03:03 PM 30.7133 -84.3617 323° Northwest 311 358 40,000  Level Jacksonville Center
Thu 04:04:02 PM 30.7878 -84.4208 326° Northwest 311 358 40,000  Level Jacksonville Center
Thu 04:05:02 PM 30.8581 -84.4778 325° Northwest 311 358 40,000  Level Jacksonville Center
Thu 04:06:02 PM 30.9303 -84.5394 324° Northwest 311 358 40,000  Level Jacksonville Center
Thu 04:07:02 PM 31.0025 -84.6014 324° Northwest 311 358 40,000  Level Jacksonville Center
Thu 04:08:02 PM 31.0769 -84.6633 325° Northwest 316 364 40,000 -450 Level Jacksonville Center
Thu 04:09:02 PM 31.1511 -84.7231 325° Northwest 316 364 39,100 -1,670 Descending Jacksonville Center
Thu 04:10:58 PM 31.2953 -84.8431 325° Northwest 305 351 35,100 -1,739 Descending Atlanta Center
Thu 04:11:58 PM 31.3658 -84.9047 323° Northwest 310 357 34,000 -550 Descending Atlanta Center
Thu 04:12:58 PM 31.4383 -84.9661 324° Northwest 310 357 34,000  Level Atlanta Center
Thu 04:13:58 PM 31.5089 -85.0253 324° Northwest 315 362 34,000  Level Atlanta Center
Thu 04:14:58 PM 31.5836 -85.0872 325° Northwest 315 362 34,000  Level Atlanta Center
Thu 04:15:58 PM 31.6542 -85.1442 326° Northwest 315 362 34,000  Level Atlanta Center
Thu 04:16:58 PM 31.7286 -85.2058 325° Northwest 315 362 34,000  Level Atlanta Center
Thu 04:17:58 PM 31.7989 -85.2681 323° Northwest 315 362 34,000  Level Atlanta Center
Thu 04:18:58 PM 31.8736 -85.3278 326° Northwest 315 362 34,000  Level Atlanta Center
Thu 04:19:58 PM 31.9458 -85.3900 324° Northwest 315 362 34,000 -450 Level Atlanta Center
Thu 04:20:58 PM 32.0183 -85.4497 325° Northwest 315 362 33,100 -950 Descending Atlanta Center
Thu 04:21:58 PM 32.0925 -85.5147 323° Northwest 315 362 32,100 -1,000 Descending Atlanta Center
Thu 04:22:58 PM 32.1692 -85.5822 323° Northwest 325 374 31,100 -1,000 Descending Atlanta Center
Thu 04:23:58 PM 32.2494 -85.6500 324° Northwest 344 396 30,100 -1,000 Descending Atlanta Center
Thu 04:24:58 PM 32.3281 -85.7178 324° Northwest 350 403 29,100 -1,050 Descending Atlanta Center
Thu 04:25:58 PM 32.4064 -85.7881 323° Northwest 350 403 28,000 -1,050 Descending Atlanta Center
Thu 04:26:58 PM 32.4889 -85.8536 326° Northwest 350 403 27,000 -950 Descending Atlanta Center
Thu 04:27:58 PM 32.5631 -85.9217 322° Northwest 350 403 26,100 -950 Descending Atlanta Center
Thu 04:28:58 PM 32.6331 -85.9800 325° Northwest 350 403 25,100 -1,000 Descending Atlanta Center
Thu 04:29:58 PM 32.7072 -86.0433 324° Northwest 344 396 24,100 -1,000 Descending Atlanta Center
Thu 04:30:58 PM 32.7792 -86.1067 323° Northwest 333 383 23,100 -980 Descending Atlanta Center
Thu 04:31:36 PM 32.8283 -86.1550 320° Northwest 319 367 22,500 -1,000 Descending Atlanta Center
Thu 04:31:58 PM 32.8511 -86.1703 331° Northwest 333 383 22,100 -1,400 Descending Atlanta Center
Thu 04:32:36 PM 32.9067 -86.2236 321° Northwest 326 375 21,100 -1,500 Descending Atlanta Center
Thu 04:32:58 PM 32.9253 -86.2364 330° Northwest 333 383 20,600 -1,967 Descending Atlanta Center
Thu 04:33:37 PM 32.9764 -86.2872 320° Northwest 319 367 19,100 -1,900 Descending Atlanta Center
Thu 04:33:58 PM 32.9931 -86.2975 333° Northwest 326 375 18,700 -1,869 Descending Atlanta Center
Thu 04:34:38 PM 33.0422 -86.3458 321° Northwest 302 348 17,200 -1,900 Descending Atlanta Center
Thu 04:34:58 PM 33.0628 -86.3564 337° Northwest 319 367 16,800 -2,066 Descending Atlanta Center
Thu 04:35:39 PM 33.1292 -86.3806 343° North 327 376 15,100 -2,300 Descending Atlanta Center
Thu 04:35:58 PM 33.1519 -86.3836 354° North 314 361 14,500 -2,200 Descending Atlanta Center
Thu 04:36:39 PM 33.2078 -86.4147 335° Northwest 299 344 12,900 -2,100 Descending Atlanta Center
Thu 04:36:58 PM 33.2242 -86.4253 332° Northwest 308 354 12,400 -1,967 Descending Atlanta Center
Thu 04:37:40 PM 33.2714 -86.4761 318° Northwest 337 388 10,900 -1,900 Descending Atlanta Center
Thu 04:37:58 PM 33.2878 -86.4867 332° Northwest 294 338 10,500 -1,770 Descending Atlanta Center
Thu 04:38:41 PM 33.3328 -86.5375 317° Northwest 290 334 9,100 -2,000 Descending Atlanta Center
Thu 04:38:58 PM 33.3553 -86.5506 334° Northwest 289 333 8,500 -1,869 Descending Atlanta Center
Thu 04:39:42 PM 33.3983 -86.5942 320° Northwest 308 354 7,200 -1,800 Descending Atlanta Center
Thu 04:39:58 PM 33.4106 -86.6069 319° Northwest 277 319 6,700 -1,909 Descending Atlanta Center
Thu 04:40:48 PM 33.4492 -86.6531 315° West 237 273 5,100 -1,700 Descending Atlanta Center
Thu 04:40:58 PM 33.4575 -86.6606 323° Northwest 254 292 5,000 -885 Descending Atlanta Center
Thu 04:41:49 PM 33.4836 -86.7039 306° West 190 219 4,200 -1,271 Descending Atlanta Center
Thu 04:42:56 PM 33.5122 -86.7369 316° Northwest 108 124 2,500 -1,465 Descending Atlanta Center
Thu 04:43:56 PM 33.5411 -86.7506 339° North 116 133 1,100 -1,400 Descending Atlanta Center
Thu 04:45:00 PM 33.5639 -86.7523 312° West  Level Estimated
Thu 04:52:00 PM 33.5639 -86.7523 140° Southeast  Level Estimated

Login

Don't have an account? Register now (free) for customized features, flight alerts, and more!